createdAt,value
2022-09-12T01:31:29.184Z,11.3
2022-09-12T02:41:32.937Z,11
2022-09-12T03:01:34.045Z,10.8
2022-09-12T03:34:40.172Z,10.9
2022-09-12T03:49:40.224Z,10.7
2022-09-12T04:01:42.623Z,10.8
2022-09-12T04:41:44.775Z,10.6
2022-09-12T05:31:44.853Z,11
2022-09-12T05:51:47.006Z,11.6
2022-09-12T06:21:47.195Z,12.5
2022-09-12T07:01:48.301Z,14.2
2022-09-12T07:11:49.764Z,14.6
2022-09-12T07:31:50.887Z,15.7
2022-09-12T07:41:51.342Z,16.7
2022-09-12T07:51:52.563Z,17.1
2022-09-12T08:15:16.847Z,17.4
2022-09-12T08:21:49.192Z,17.9
2022-09-12T08:31:52.868Z,18.3
2022-09-12T08:41:50.553Z,18.6
2022-09-12T08:51:51.190Z,19.2
2022-09-12T09:01:51.982Z,19.5
2022-09-12T09:11:52.754Z,20.1
2022-09-12T09:21:52.831Z,20.4
2022-09-12T09:31:53.466Z,20.4
2022-09-12T09:41:53.991Z,20.7
2022-09-12T09:51:56.521Z,21.2
2022-09-12T10:01:55.006Z,20.9
2022-09-12T10:11:55.662Z,21.6
2022-09-12T10:21:56.685Z,21.6
2022-09-12T10:31:57.647Z,22.2
2022-09-12T10:41:58.139Z,22.8
2022-09-12T10:51:58.282Z,22.5
2022-09-12T11:01:59.131Z,22.7
2022-09-12T11:21:59.637Z,22.7
2022-09-12T11:32:00.246Z,23.8
2022-09-12T11:42:00.521Z,23.3
2022-09-12T11:52:01.223Z,23.9
2022-09-12T12:02:01.823Z,24.2
2022-09-12T12:12:02.129Z,24.4
2022-09-12T12:12:07.396Z,24.4
2022-09-12T12:32:08.394Z,24.5
2022-09-12T12:42:09.305Z,24.8
2022-09-12T12:52:10.016Z,25.1
2022-09-12T13:12:11.223Z,25.2
2022-09-12T13:22:11.368Z,25
2022-09-12T13:32:11.679Z,25.1
2022-09-12T13:42:11.968Z,25.2
2022-09-12T13:52:12.553Z,24.9
2022-09-12T14:02:12.906Z,25.1
2022-09-12T14:12:12.988Z,25.6
2022-09-12T14:22:13.347Z,25.3
2022-09-12T14:32:13.604Z,25.2
2022-09-12T14:42:14.439Z,24.9
2022-09-12T14:52:15.101Z,25.3
2022-09-12T15:12:16.216Z,25.6
2022-09-12T15:22:16.592Z,24.8
2022-09-12T15:32:17.232Z,24.7
2022-09-12T15:42:17.652Z,24.6
2022-09-12T15:52:18.075Z,24.4
2022-09-12T16:02:18.948Z,24.4
2022-09-12T16:12:19.184Z,24.3
2022-09-12T16:22:20.211Z,24.1
2022-09-12T16:32:20.958Z,24.1
2022-09-12T16:42:21.478Z,23.9
2022-09-12T16:52:21.750Z,23.9
2022-09-12T17:02:22.045Z,23.6
2022-09-12T17:12:22.738Z,23.4
2022-09-12T17:22:22.786Z,23.2
2022-09-12T17:32:22.851Z,22.8
2022-09-12T17:42:22.907Z,22.2
2022-09-12T17:52:23.054Z,21.6
2022-09-12T18:02:23.803Z,21
2022-09-12T18:12:24.012Z,20.4
2022-09-12T18:22:24.430Z,20
2022-09-12T18:32:24.509Z,19.6
2022-09-12T18:42:24.681Z,19.7
2022-09-12T18:52:25.702Z,19.2
2022-09-12T19:02:26.559Z,18.8
2022-09-12T19:22:27.079Z,18.7
2022-09-12T19:32:27.281Z,19.3
2022-09-12T19:42:27.411Z,20.1
2022-09-12T19:52:28.060Z,20
2022-09-12T20:02:29.008Z,19.8
2022-09-12T20:12:29.623Z,19.6
2022-09-12T20:22:30.444Z,19.4
2022-09-12T20:32:30.495Z,19.2
2022-09-12T20:42:30.817Z,18.6
2022-09-12T21:02:32.153Z,19.8
2022-09-12T21:12:32.607Z,19.7
2022-09-12T21:22:33.434Z,19.5
2022-09-12T21:32:33.705Z,19.4
2022-09-12T21:42:34.281Z,19.3
2022-09-12T21:52:34.463Z,19.1
2022-09-12T22:02:35.266Z,19.1
2022-09-12T22:12:35.959Z,19.2
2022-09-12T22:22:36.462Z,19.2
2022-09-12T22:32:37.190Z,19.1
2022-09-12T22:42:37.382Z,18.9
2022-09-12T22:52:37.844Z,18.8
2022-09-12T23:02:38.625Z,18.6
2022-09-12T23:12:39.125Z,18.3
2022-09-12T23:22:39.271Z,18.3
2022-09-12T23:32:40.040Z,18.2
2022-09-12T23:42:40.535Z,18.3
2022-09-12T23:52:41.280Z,18.3
